sensor_id;sensor_type;location;lat;lon;timestamp;temperature;humidity
37806;DHT22;25082;50.870;0.022;2023-04-15T00:00:16;17.50;64.30
37806;DHT22;25082;50.870;0.022;2023-04-15T00:02:42;17.50;64.30
37806;DHT22;25082;50.870;0.022;2023-04-15T00:05:08;17.50;64.30
37806;DHT22;25082;50.870;0.022;2023-04-15T00:07:35;17.40;64.30
37806;DHT22;25082;50.870;0.022;2023-04-15T00:10:01;17.50;64.40
37806;DHT22;25082;50.870;0.022;2023-04-15T00:12:27;17.40;64.30
37806;DHT22;25082;50.870;0.022;2023-04-15T00:14:53;17.50;64.40
37806;DHT22;25082;50.870;0.022;2023-04-15T00:17:19;17.50;64.40
37806;DHT22;25082;50.870;0.022;2023-04-15T00:19:45;17.40;64.30
37806;DHT22;25082;50.870;0.022;2023-04-15T00:22:11;17.40;64.30
37806;DHT22;25082;50.870;0.022;2023-04-15T00:24:38;17.40;64.30
37806;DHT22;25082;50.870;0.022;2023-04-15T00:27:04;17.40;64.30
37806;DHT22;25082;50.870;0.022;2023-04-15T00:29:30;17.40;64.40
37806;DHT22;25082;50.870;0.022;2023-04-15T00:31:56;17.40;64.40
37806;DHT22;25082;50.870;0.022;2023-04-15T00:34:22;17.40;64.40
37806;DHT22;25082;50.870;0.022;2023-04-15T00:36:49;17.30;64.30
37806;DHT22;25082;50.870;0.022;2023-04-15T00:39:16;17.40;64.40
37806;DHT22;25082;50.870;0.022;2023-04-15T00:41:42;17.30;64.40
37806;DHT22;25082;50.870;0.022;2023-04-15T00:44:08;17.30;64.30
37806;DHT22;25082;50.870;0.022;2023-04-15T00:46:36;17.40;64.40
37806;DHT22;25082;50.870;0.022;2023-04-15T00:49:05;17.30;64.40
37806;DHT22;25082;50.870;0.022;2023-04-15T00:51:32;17.30;64.30
37806;DHT22;25082;50.870;0.022;2023-04-15T00:54:04;17.30;64.30
37806;DHT22;25082;50.870;0.022;2023-04-15T00:56:34;17.30;64.30
37806;DHT22;25082;50.870;0.022;2023-04-15T00:59:00;17.30;64.40
37806;DHT22;25082;50.870;0.022;2023-04-15T01:01:27;17.30;64.30
37806;DHT22;25082;50.870;0.022;2023-04-15T01:03:55;17.30;64.40
37806;DHT22;25082;50.870;0.022;2023-04-15T01:06:23;17.30;64.40
37806;DHT22;25082;50.870;0.022;2023-04-15T01:08:49;17.30;64.40
37806;DHT22;25082;50.870;0.022;2023-04-15T01:11:15;17.30;64.40
37806;DHT22;25082;50.870;0.022;2023-04-15T01:13:41;17.30;64.40
37806;DHT22;25082;50.870;0.022;2023-04-15T01:16:08;17.20;64.30
37806;DHT22;25082;50.870;0.022;2023-04-15T01:18:35;17.20;64.30
37806;DHT22;25082;50.870;0.022;2023-04-15T01:21:02;17.20;64.30
37806;DHT22;25082;50.870;0.022;2023-04-15T01:23:29;17.20;64.30
37806;DHT22;25082;50.870;0.022;2023-04-15T01:25:55;17.20;64.30
37806;DHT22;25082;50.870;0.022;2023-04-15T01:28:22;17.30;64.40
37806;DHT22;25082;50.870;0.022;2023-04-15T01:30:48;17.20;64.40
37806;DHT22;25082;50.870;0.022;2023-04-15T01:33:14;17.20;64.40
37806;DHT22;25082;50.870;0.022;2023-04-15T01:35:40;17.20;64.40
37806;DHT22;25082;50.870;0.022;2023-04-15T01:38:09;17.20;64.40
37806;DHT22;25082;50.870;0.022;2023-04-15T01:40:35;17.20;64.40
37806;DHT22;25082;50.870;0.022;2023-04-15T01:43:02;17.20;64.40
37806;DHT22;25082;50.870;0.022;2023-04-15T01:45:28;17.20;64.40
37806;DHT22;25082;50.870;0.022;2023-04-15T01:47:54;17.20;64.40
37806;DHT22;25082;50.870;0.022;2023-04-15T01:50:20;17.20;64.40
37806;DHT22;25082;50.870;0.022;2023-04-15T01:52:46;17.20;64.30
37806;DHT22;25082;50.870;0.022;2023-04-15T01:55:15;17.20;64.30
37806;DHT22;25082;50.870;0.022;2023-04-15T01:57:41;17.10;64.30
37806;DHT22;25082;50.870;0.022;2023-04-15T02:00:07;17.10;64.30
37806;DHT22;25082;50.870;0.022;2023-04-15T02:02:33;17.10;64.30
37806;DHT22;25082;50.870;0.022;2023-04-15T02:05:00;17.10;64.20
37806;DHT22;25082;50.870;0.022;2023-04-15T02:07:26;17.10;64.30
37806;DHT22;25082;50.870;0.022;2023-04-15T02:09:53;17.10;64.30
37806;DHT22;25082;50.870;0.022;2023-04-15T02:12:19;17.10;64.30
37806;DHT22;25082;50.870;0.022;2023-04-15T02:14:44;17.10;64.30
37806;DHT22;25082;50.870;0.022;2023-04-15T02:17:10;17.10;64.30
37806;DHT22;25082;50.870;0.022;2023-04-15T02:19:36;17.10;64.30
37806;DHT22;25082;50.870;0.022;2023-04-15T02:22:03;17.00;64.20
37806;DHT22;25082;50.870;0.022;2023-04-15T02:24:29;17.10;64.30
37806;DHT22;25082;50.870;0.022;2023-04-15T02:26:56;17.10;64.30
37806;DHT22;25082;50.870;0.022;2023-04-15T02:29:22;17.10;64.30
37806;DHT22;25082;50.870;0.022;2023-04-15T02:31:48;17.10;64.30
37806;DHT22;25082;50.870;0.022;2023-04-15T02:34:14;17.10;64.30
37806;DHT22;25082;50.870;0.022;2023-04-15T02:36:40;17.00;64.20
37806;DHT22;25082;50.870;0.022;2023-04-15T02:39:05;17.00;64.20
37806;DHT22;25082;50.870;0.022;2023-04-15T02:41:32;17.10;64.30
37806;DHT22;25082;50.870;0.022;2023-04-15T02:43:57;17.00;64.30
37806;DHT22;25082;50.870;0.022;2023-04-15T02:46:23;17.00;64.20
37806;DHT22;25082;50.870;0.022;2023-04-15T02:48:49;17.10;64.30
37806;DHT22;25082;50.870;0.022;2023-04-15T02:51:19;17.00;64.30
37806;DHT22;25082;50.870;0.022;2023-04-15T02:53:47;17.00;64.30
37806;DHT22;25082;50.870;0.022;2023-04-15T02:56:13;17.00;64.30
37806;DHT22;25082;50.870;0.022;2023-04-15T02:58:44;17.00;64.30
37806;DHT22;25082;50.870;0.022;2023-04-15T03:01:10;17.00;64.30
37806;DHT22;25082;50.870;0.022;2023-04-15T03:03:36;17.00;64.30
37806;DHT22;25082;50.870;0.022;2023-04-15T03:06:02;17.00;64.30
37806;DHT22;25082;50.870;0.022;2023-04-15T03:08:27;17.00;64.30
37806;DHT22;25082;50.870;0.022;2023-04-15T03:10:53;17.00;64.30
37806;DHT22;25082;50.870;0.022;2023-04-15T03:13:19;17.00;64.30
37806;DHT22;25082;50.870;0.022;2023-04-15T03:15:46;17.00;64.30
37806;DHT22;25082;50.870;0.022;2023-04-15T03:18:12;17.00;64.30
37806;DHT22;25082;50.870;0.022;2023-04-15T03:20:37;16.90;64.20
37806;DHT22;25082;50.870;0.022;2023-04-15T03:23:03;16.90;64.20
37806;DHT22;25082;50.870;0.022;2023-04-15T03:25:29;16.90;64.20
37806;DHT22;25082;50.870;0.022;2023-04-15T03:27:55;16.90;64.20
37806;DHT22;25082;50.870;0.022;2023-04-15T03:30:21;16.90;64.20
37806;DHT22;25082;50.870;0.022;2023-04-15T03:32:47;16.90;64.30
37806;DHT22;25082;50.870;0.022;2023-04-15T03:35:12;17.50;64.60
37806;DHT22;25082;50.870;0.022;2023-04-15T03:37:38;16.90;64.30
37806;DHT22;25082;50.870;0.022;2023-04-15T03:40:04;16.90;64.30
37806;DHT22;25082;50.870;0.022;2023-04-15T03:42:30;16.90;64.30
37806;DHT22;25082;50.870;0.022;2023-04-15T03:44:56;16.90;64.30
37806;DHT22;25082;50.870;0.022;2023-04-15T03:47:21;16.90;64.30
37806;DHT22;25082;50.870;0.022;2023-04-15T03:49:47;16.90;64.20
37806;DHT22;25082;50.870;0.022;2023-04-15T03:52:13;16.80;64.20
37806;DHT22;25082;50.870;0.022;2023-04-15T03:54:39;16.80;64.20
37806;DHT22;25082;50.870;0.022;2023-04-15T03:57:04;16.80;64.20
37806;DHT22;25082;50.870;0.022;2023-04-15T03:59:30;16.80;64.20
37806;DHT22;25082;50.870;0.022;2023-04-15T04:01:56;16.80;64.20
37806;DHT22;25082;50.870;0.022;2023-04-15T04:04:22;16.80;64.20
37806;DHT22;25082;50.870;0.022;2023-04-15T04:06:48;16.80;64.20
37806;DHT22;25082;50.870;0.022;2023-04-15T04:09:14;16.80;64.20
37806;DHT22;25082;50.870;0.022;2023-04-15T04:11:39;16.80;64.20
37806;DHT22;25082;50.870;0.022;2023-04-15T04:14:05;16.80;64.20
37806;DHT22;25082;50.870;0.022;2023-04-15T04:16:31;16.80;64.20
37806;DHT22;25082;50.870;0.022;2023-04-15T04:19:00;16.80;64.20
37806;DHT22;25082;50.870;0.022;2023-04-15T04:21:26;16.80;64.20
37806;DHT22;25082;50.870;0.022;2023-04-15T04:23:52;16.80;64.20
37806;DHT22;25082;50.870;0.022;2023-04-15T04:26:18;16.80;64.20
37806;DHT22;25082;50.870;0.022;2023-04-15T04:28:44;16.80;64.20
37806;DHT22;25082;50.870;0.022;2023-04-15T04:31:09;16.80;64.20
37806;DHT22;25082;50.870;0.022;2023-04-15T04:33:36;16.80;64.10
37806;DHT22;25082;50.870;0.022;2023-04-15T04:36:02;16.70;64.10
37806;DHT22;25082;50.870;0.022;2023-04-15T04:38:28;16.70;64.10
37806;DHT22;25082;50.870;0.022;2023-04-15T04:40:53;16.80;64.10
37806;DHT22;25082;50.870;0.022;2023-04-15T04:43:19;16.70;64.10
37806;DHT22;25082;50.870;0.022;2023-04-15T04:45:45;16.70;64.10
37806;DHT22;25082;50.870;0.022;2023-04-15T04:48:11;16.70;64.10
37806;DHT22;25082;50.870;0.022;2023-04-15T04:50:36;16.70;64.10
37806;DHT22;25082;50.870;0.022;2023-04-15T04:53:02;16.70;64.10
37806;DHT22;25082;50.870;0.022;2023-04-15T04:55:28;16.70;64.10
37806;DHT22;25082;50.870;0.022;2023-04-15T04:57:54;16.70;64.10
37806;DHT22;25082;50.870;0.022;2023-04-15T05:00:20;16.70;64.10
37806;DHT22;25082;50.870;0.022;2023-04-15T05:02:45;16.70;64.10
37806;DHT22;25082;50.870;0.022;2023-04-15T05:05:11;16.70;64.10
37806;DHT22;25082;50.870;0.022;2023-04-15T05:07:37;16.70;64.10
37806;DHT22;25082;50.870;0.022;2023-04-15T05:10:04;16.70;64.10
37806;DHT22;25082;50.870;0.022;2023-04-15T05:12:30;16.70;64.10
37806;DHT22;25082;50.870;0.022;2023-04-15T05:14:56;16.70;64.10
37806;DHT22;25082;50.870;0.022;2023-04-15T05:17:23;16.70;64.10
37806;DHT22;25082;50.870;0.022;2023-04-15T05:19:49;16.70;64.10
37806;DHT22;25082;50.870;0.022;2023-04-15T05:22:14;16.70;64.10
37806;DHT22;25082;50.870;0.022;2023-04-15T05:24:40;16.70;64.10
37806;DHT22;25082;50.870;0.022;2023-04-15T05:27:06;16.70;64.10
37806;DHT22;25082;50.870;0.022;2023-04-15T05:29:33;16.60;64.10
37806;DHT22;25082;50.870;0.022;2023-04-15T05:31:59;16.60;64.10
37806;DHT22;25082;50.870;0.022;2023-04-15T05:34:25;16.60;64.10
37806;DHT22;25082;50.870;0.022;2023-04-15T05:36:51;16.60;64.10
37806;DHT22;25082;50.870;0.022;2023-04-15T05:39:17;16.60;64.10
37806;DHT22;25082;50.870;0.022;2023-04-15T05:41:43;16.60;64.10
37806;DHT22;25082;50.870;0.022;2023-04-15T05:44:09;16.60;64.00
37806;DHT22;25082;50.870;0.022;2023-04-15T05:46:35;16.60;64.10
37806;DHT22;25082;50.870;0.022;2023-04-15T05:49:00;16.60;64.10
37806;DHT22;25082;50.870;0.022;2023-04-15T05:51:26;16.60;64.00
37806;DHT22;25082;50.870;0.022;2023-04-15T05:53:52;16.60;64.10
37806;DHT22;25082;50.870;0.022;2023-04-15T05:56:18;16.60;64.10
37806;DHT22;25082;50.870;0.022;2023-04-15T05:58:45;16.60;64.10
37806;DHT22;25082;50.870;0.022;2023-04-15T06:01:10;16.60;64.10
37806;DHT22;25082;50.870;0.022;2023-04-15T06:03:37;16.60;64.10
37806;DHT22;25082;50.870;0.022;2023-04-15T06:06:03;16.60;64.10
37806;DHT22;25082;50.870;0.022;2023-04-15T06:08:29;16.60;64.00
37806;DHT22;25082;50.870;0.022;2023-04-15T06:10:55;16.60;64.10
37806;DHT22;25082;50.870;0.022;2023-04-15T06:13:20;16.60;64.10
37806;DHT22;25082;50.870;0.022;2023-04-15T06:15:46;16.60;64.00
37806;DHT22;25082;50.870;0.022;2023-04-15T06:18:12;16.60;63.80
37806;DHT22;25082;50.870;0.022;2023-04-15T06:20:38;16.70;63.80
37806;DHT22;25082;50.870;0.022;2023-04-15T06:23:04;16.70;63.70
37806;DHT22;25082;50.870;0.022;2023-04-15T06:25:29;16.70;63.70
37806;DHT22;25082;50.870;0.022;2023-04-15T06:27:55;16.70;63.60
37806;DHT22;25082;50.870;0.022;2023-04-15T06:30:21;16.70;63.60
37806;DHT22;25082;50.870;0.022;2023-04-15T06:32:47;16.80;63.70
37806;DHT22;25082;50.870;0.022;2023-04-15T06:35:13;16.80;63.70
37806;DHT22;25082;50.870;0.022;2023-04-15T06:37:38;16.80;63.70
37806;DHT22;25082;50.870;0.022;2023-04-15T06:40:05;16.80;63.70
37806;DHT22;25082;50.870;0.022;2023-04-15T06:42:31;16.90;63.80
37806;DHT22;25082;50.870;0.022;2023-04-15T06:44:57;16.90;63.80
37806;DHT22;25082;50.870;0.022;2023-04-15T06:47:22;16.90;63.80
37806;DHT22;25082;50.870;0.022;2023-04-15T06:49:48;16.90;63.80
37806;DHT22;25082;50.870;0.022;2023-04-15T06:52:14;16.90;63.80
37806;DHT22;25082;50.870;0.022;2023-04-15T06:54:41;16.90;63.90
37806;DHT22;25082;50.870;0.022;2023-04-15T06:57:07;16.90;63.90
37806;DHT22;25082;50.870;0.022;2023-04-15T06:59:34;17.00;64.00
37806;DHT22;25082;50.870;0.022;2023-04-15T07:01:59;17.00;64.00
37806;DHT22;25082;50.870;0.022;2023-04-15T07:04:25;17.00;64.00
37806;DHT22;25082;50.870;0.022;2023-04-15T07:06:52;17.00;64.00
37806;DHT22;25082;50.870;0.022;2023-04-15T07:09:21;17.00;64.00
37806;DHT22;25082;50.870;0.022;2023-04-15T07:11:46;17.00;64.00
37806;DHT22;25082;50.870;0.022;2023-04-15T07:14:13;17.10;64.10
37806;DHT22;25082;50.870;0.022;2023-04-15T07:16:38;17.10;64.20
37806;DHT22;25082;50.870;0.022;2023-04-15T07:19:04;17.10;64.20
37806;DHT22;25082;50.870;0.022;2023-04-15T07:21:30;17.10;64.20
37806;DHT22;25082;50.870;0.022;2023-04-15T07:23:56;17.10;64.20
37806;DHT22;25082;50.870;0.022;2023-04-15T07:26:23;17.10;64.20
37806;DHT22;25082;50.870;0.022;2023-04-15T07:28:49;17.10;64.20
37806;DHT22;25082;50.870;0.022;2023-04-15T07:31:15;17.10;64.20
37806;DHT22;25082;50.870;0.022;2023-04-15T07:33:41;17.10;64.20
37806;DHT22;25082;50.870;0.022;2023-04-15T07:36:07;17.20;64.30
37806;DHT22;25082;50.870;0.022;2023-04-15T07:38:33;17.20;64.90
37806;DHT22;25082;50.870;0.022;2023-04-15T07:40:59;17.20;64.30
37806;DHT22;25082;50.870;0.022;2023-04-15T07:43:25;17.20;64.30
37806;DHT22;25082;50.870;0.022;2023-04-15T07:45:50;17.20;64.30
37806;DHT22;25082;50.870;0.022;2023-04-15T07:48:16;17.20;64.30
37806;DHT22;25082;50.870;0.022;2023-04-15T07:50:42;17.20;64.30
37806;DHT22;25082;50.870;0.022;2023-04-15T07:53:08;17.20;64.30
37806;DHT22;25082;50.870;0.022;2023-04-15T07:55:33;17.20;64.30
37806;DHT22;25082;50.870;0.022;2023-04-15T07:57:59;17.20;64.30
37806;DHT22;25082;50.870;0.022;2023-04-15T08:00:25;17.20;64.30
37806;DHT22;25082;50.870;0.022;2023-04-15T08:02:51;17.20;64.30
37806;DHT22;25082;50.870;0.022;2023-04-15T08:05:18;17.30;64.40
37806;DHT22;25082;50.870;0.022;2023-04-15T08:07:44;17.30;64.40
37806;DHT22;25082;50.870;0.022;2023-04-15T08:10:10;17.30;64.40
37806;DHT22;25082;50.870;0.022;2023-04-15T08:12:36;17.30;64.40
37806;DHT22;25082;50.870;0.022;2023-04-15T08:15:02;17.30;64.40
37806;DHT22;25082;50.870;0.022;2023-04-15T08:17:28;17.30;64.40
37806;DHT22;25082;50.870;0.022;2023-04-15T08:19:54;17.30;64.40
37806;DHT22;25082;50.870;0.022;2023-04-15T08:22:20;17.40;64.40
37806;DHT22;25082;50.870;0.022;2023-04-15T08:24:46;17.30;64.40
37806;DHT22;25082;50.870;0.022;2023-04-15T08:27:11;17.40;64.40
37806;DHT22;25082;50.870;0.022;2023-04-15T08:29:38;17.40;64.40
37806;DHT22;25082;50.870;0.022;2023-04-15T08:32:05;17.40;65.00
37806;DHT22;25082;50.870;0.022;2023-04-15T08:34:31;17.30;64.40
37806;DHT22;25082;50.870;0.022;2023-04-15T08:36:56;17.40;64.40
37806;DHT22;25082;50.870;0.022;2023-04-15T08:39:22;17.40;64.40
37806;DHT22;25082;50.870;0.022;2023-04-15T08:42:02;17.40;64.40
37806;DHT22;25082;50.870;0.022;2023-04-15T08:44:32;17.40;64.40
37806;DHT22;25082;50.870;0.022;2023-04-15T08:47:02;17.40;64.30
37806;DHT22;25082;50.870;0.022;2023-04-15T08:49:29;17.40;64.30
37806;DHT22;25082;50.870;0.022;2023-04-15T08:51:58;17.50;64.40
37806;DHT22;25082;50.870;0.022;2023-04-15T08:54:24;17.50;64.40
37806;DHT22;25082;50.870;0.022;2023-04-15T08:56:51;17.50;64.40
37806;DHT22;25082;50.870;0.022;2023-04-15T08:59:17;17.50;64.40
37806;DHT22;25082;50.870;0.022;2023-04-15T09:01:43;17.50;64.40
37806;DHT22;25082;50.870;0.022;2023-04-15T09:04:10;17.50;64.30
37806;DHT22;25082;50.870;0.022;2023-04-15T09:06:38;17.60;64.40
37806;DHT22;25082;50.870;0.022;2023-04-15T09:09:05;17.60;64.40
37806;DHT22;25082;50.870;0.022;2023-04-15T09:11:30;17.60;64.40
37806;DHT22;25082;50.870;0.022;2023-04-15T09:13:56;17.60;64.40
37806;DHT22;25082;50.870;0.022;2023-04-15T09:16:22;17.60;64.30
37806;DHT22;25082;50.870;0.022;2023-04-15T09:18:48;17.60;64.30
37806;DHT22;25082;50.870;0.022;2023-04-15T09:21:15;17.60;64.30
37806;DHT22;25082;50.870;0.022;2023-04-15T09:23:57;17.60;64.30
37806;DHT22;25082;50.870;0.022;2023-04-15T09:26:34;17.70;64.30
37806;DHT22;25082;50.870;0.022;2023-04-15T09:29:04;17.70;64.30
37806;DHT22;25082;50.870;0.022;2023-04-15T09:31:31;17.70;64.30
37806;DHT22;25082;50.870;0.022;2023-04-15T09:33:57;17.70;64.20
37806;DHT22;25082;50.870;0.022;2023-04-15T09:36:23;17.70;64.30
37806;DHT22;25082;50.870;0.022;2023-04-15T09:38:58;17.70;64.20
37806;DHT22;25082;50.870;0.022;2023-04-15T09:41:25;17.70;64.20
37806;DHT22;25082;50.870;0.022;2023-04-15T09:43:51;17.70;64.20
37806;DHT22;25082;50.870;0.022;2023-04-15T09:46:17;17.70;64.20
37806;DHT22;25082;50.870;0.022;2023-04-15T09:48:43;17.70;64.20
37806;DHT22;25082;50.870;0.022;2023-04-15T09:51:09;17.80;64.30
37806;DHT22;25082;50.870;0.022;2023-04-15T09:53:36;17.70;64.20
37806;DHT22;25082;50.870;0.022;2023-04-15T09:56:03;17.70;64.20
37806;DHT22;25082;50.870;0.022;2023-04-15T09:58:31;17.70;64.20
37806;DHT22;25082;50.870;0.022;2023-04-15T10:00:58;17.70;64.20
37806;DHT22;25082;50.870;0.022;2023-04-15T10:03:30;17.80;64.20
37806;DHT22;25082;50.870;0.022;2023-04-15T10:05:58;17.80;64.10
37806;DHT22;25082;50.870;0.022;2023-04-15T10:08:27;17.80;64.10
37806;DHT22;25082;50.870;0.022;2023-04-15T10:10:53;17.80;64.10
37806;DHT22;25082;50.870;0.022;2023-04-15T10:13:24;17.80;64.10
37806;DHT22;25082;50.870;0.022;2023-04-15T10:15:55;17.80;64.10
37806;DHT22;25082;50.870;0.022;2023-04-15T10:18:24;17.80;64.00
37806;DHT22;25082;50.870;0.022;2023-04-15T10:20:52;17.80;64.00
37806;DHT22;25082;50.870;0.022;2023-04-15T10:23:19;17.80;64.10
37806;DHT22;25082;50.870;0.022;2023-04-15T10:25:45;17.90;64.10
37806;DHT22;25082;50.870;0.022;2023-04-15T10:28:11;17.80;64.10
37806;DHT22;25082;50.870;0.022;2023-04-15T10:30:39;17.80;64.10
37806;DHT22;25082;50.870;0.022;2023-04-15T10:33:05;17.80;64.20
37806;DHT22;25082;50.870;0.022;2023-04-15T10:35:32;17.80;64.20
37806;DHT22;25082;50.870;0.022;2023-04-15T10:37:58;17.80;64.20
37806;DHT22;25082;50.870;0.022;2023-04-15T10:43:02;17.80;64.20
37806;DHT22;25082;50.870;0.022;2023-04-15T10:45:31;17.80;64.20
37806;DHT22;25082;50.870;0.022;2023-04-15T10:48:00;17.90;64.20
37806;DHT22;25082;50.870;0.022;2023-04-15T10:50:26;17.80;64.10
37806;DHT22;25082;50.870;0.022;2023-04-15T10:52:55;17.90;64.10
37806;DHT22;25082;50.870;0.022;2023-04-15T10:55:23;17.90;64.10
37806;DHT22;25082;50.870;0.022;2023-04-15T10:57:58;17.90;64.10
37806;DHT22;25082;50.870;0.022;2023-04-15T11:00:28;17.90;64.10
37806;DHT22;25082;50.870;0.022;2023-04-15T11:03:07;17.90;64.10
37806;DHT22;25082;50.870;0.022;2023-04-15T11:05:52;17.90;64.00
37806;DHT22;25082;50.870;0.022;2023-04-15T11:08:19;17.90;64.00
37806;DHT22;25082;50.870;0.022;2023-04-15T11:15:41;17.90;64.10
37806;DHT22;25082;50.870;0.022;2023-04-15T11:18:17;17.90;64.40
37806;DHT22;25082;50.870;0.022;2023-04-15T11:20:47;18.00;64.20
37806;DHT22;25082;50.870;0.022;2023-04-15T11:23:18;18.00;64.20
37806;DHT22;25082;50.870;0.022;2023-04-15T11:25:44;18.00;64.20
37806;DHT22;25082;50.870;0.022;2023-04-15T11:28:11;18.00;64.10
37806;DHT22;25082;50.870;0.022;2023-04-15T11:30:39;18.00;64.10
37806;DHT22;25082;50.870;0.022;2023-04-15T11:33:07;18.00;64.10
37806;DHT22;25082;50.870;0.022;2023-04-15T11:35:34;18.00;64.10
37806;DHT22;25082;50.870;0.022;2023-04-15T11:38:04;18.10;64.10
37806;DHT22;25082;50.870;0.022;2023-04-15T11:40:31;18.00;64.10
37806;DHT22;25082;50.870;0.022;2023-04-15T11:45:36;18.10;64.40
37806;DHT22;25082;50.870;0.022;2023-04-15T11:48:09;18.10;64.40
37806;DHT22;25082;50.870;0.022;2023-04-15T11:50:36;18.10;64.40
37806;DHT22;25082;50.870;0.022;2023-04-15T11:53:04;18.10;64.40
37806;DHT22;25082;50.870;0.022;2023-04-15T11:55:32;18.20;64.80
37806;DHT22;25082;50.870;0.022;2023-04-15T11:58:15;18.20;64.90
37806;DHT22;25082;50.870;0.022;2023-04-15T12:00:49;18.20;65.00
37806;DHT22;25082;50.870;0.022;2023-04-15T12:03:23;18.20;65.00
37806;DHT22;25082;50.870;0.022;2023-04-15T12:06:10;18.20;64.90
37806;DHT22;25082;50.870;0.022;2023-04-15T12:09:11;18.20;64.90
37806;DHT22;25082;50.870;0.022;2023-04-15T12:11:47;18.20;65.20
37806;DHT22;25082;50.870;0.022;2023-04-15T12:14:21;18.20;65.00
37806;DHT22;25082;50.870;0.022;2023-04-15T12:16:50;18.20;64.50
37806;DHT22;25082;50.870;0.022;2023-04-15T12:19:35;18.20;64.20
37806;DHT22;25082;50.870;0.022;2023-04-15T12:22:03;18.20;64.20
37806;DHT22;25082;50.870;0.022;2023-04-15T12:24:34;18.20;64.10
37806;DHT22;25082;50.870;0.022;2023-04-15T12:27:04;18.20;64.10
37806;DHT22;25082;50.870;0.022;2023-04-15T12:29:31;18.20;64.30
37806;DHT22;25082;50.870;0.022;2023-04-15T12:32:09;18.20;64.20
37806;DHT22;25082;50.870;0.022;2023-04-15T12:34:51;18.20;64.30
37806;DHT22;25082;50.870;0.022;2023-04-15T12:37:17;18.20;64.30
37806;DHT22;25082;50.870;0.022;2023-04-15T12:39:46;18.30;64.40
37806;DHT22;25082;50.870;0.022;2023-04-15T12:42:14;18.30;64.60
37806;DHT22;25082;50.870;0.022;2023-04-15T12:44:40;18.30;64.60
37806;DHT22;25082;50.870;0.022;2023-04-15T12:47:07;18.30;64.60
37806;DHT22;25082;50.870;0.022;2023-04-15T12:49:33;18.30;64.60
37806;DHT22;25082;50.870;0.022;2023-04-15T12:52:00;18.30;64.70
37806;DHT22;25082;50.870;0.022;2023-04-15T12:54:27;18.30;64.60
37806;DHT22;25082;50.870;0.022;2023-04-15T12:56:53;18.30;64.60
37806;DHT22;25082;50.870;0.022;2023-04-15T12:59:20;18.30;64.50
37806;DHT22;25082;50.870;0.022;2023-04-15T13:01:47;18.30;64.60
37806;DHT22;25082;50.870;0.022;2023-04-15T13:04:13;18.30;64.60
37806;DHT22;25082;50.870;0.022;2023-04-15T13:06:39;18.30;64.60
37806;DHT22;25082;50.870;0.022;2023-04-15T13:09:06;18.30;64.60
37806;DHT22;25082;50.870;0.022;2023-04-15T13:11:32;18.30;65.30
37806;DHT22;25082;50.870;0.022;2023-04-15T13:14:00;18.30;64.80
37806;DHT22;25082;50.870;0.022;2023-04-15T13:16:26;18.30;64.80
37806;DHT22;25082;50.870;0.022;2023-04-15T13:18:52;18.30;64.70
37806;DHT22;25082;50.870;0.022;2023-04-15T13:21:18;18.30;64.60
37806;DHT22;25082;50.870;0.022;2023-04-15T13:23:44;18.30;62.20
37806;DHT22;25082;50.870;0.022;2023-04-15T13:26:10;18.30;61.50
37806;DHT22;25082;50.870;0.022;2023-04-15T13:28:36;18.20;61.40
37806;DHT22;25082;50.870;0.022;2023-04-15T13:31:02;18.20;61.40
37806;DHT22;25082;50.870;0.022;2023-04-15T13:33:27;18.20;60.50
37806;DHT22;25082;50.870;0.022;2023-04-15T13:35:53;18.10;60.40
37806;DHT22;25082;50.870;0.022;2023-04-15T13:38:19;18.10;60.60
37806;DHT22;25082;50.870;0.022;2023-04-15T13:40:45;18.10;60.40
37806;DHT22;25082;50.870;0.022;2023-04-15T13:43:11;18.10;60.10
37806;DHT22;25082;50.870;0.022;2023-04-15T13:45:37;18.10;59.20
37806;DHT22;25082;50.870;0.022;2023-04-15T13:48:03;18.00;59.90
37806;DHT22;25082;50.870;0.022;2023-04-15T13:50:29;18.00;59.80
37806;DHT22;25082;50.870;0.022;2023-04-15T13:52:55;18.00;59.80
37806;DHT22;25082;50.870;0.022;2023-04-15T13:55:21;18.00;59.60
37806;DHT22;25082;50.870;0.022;2023-04-15T13:57:46;18.00;59.20
37806;DHT22;25082;50.870;0.022;2023-04-15T14:00:12;17.90;59.40
37806;DHT22;25082;50.870;0.022;2023-04-15T14:02:39;17.90;58.70
37806;DHT22;25082;50.870;0.022;2023-04-15T14:05:05;17.90;60.50
37806;DHT22;25082;50.870;0.022;2023-04-15T14:07:31;17.90;61.00
37806;DHT22;25082;50.870;0.022;2023-04-15T14:09:56;17.90;61.40
37806;DHT22;25082;50.870;0.022;2023-04-15T14:12:22;18.00;61.90
37806;DHT22;25082;50.870;0.022;2023-04-15T14:14:48;18.00;62.10
37806;DHT22;25082;50.870;0.022;2023-04-15T14:17:14;18.10;62.30
37806;DHT22;25082;50.870;0.022;2023-04-15T14:19:40;18.10;62.40
37806;DHT22;25082;50.870;0.022;2023-04-15T14:22:06;18.20;62.80
37806;DHT22;25082;50.870;0.022;2023-04-15T14:24:31;18.20;63.40
37806;DHT22;25082;50.870;0.022;2023-04-15T14:27:01;18.30;63.90
37806;DHT22;25082;50.870;0.022;2023-04-15T14:29:27;18.30;64.70
37806;DHT22;25082;50.870;0.022;2023-04-15T14:31:53;18.30;65.40
37806;DHT22;25082;50.870;0.022;2023-04-15T14:34:21;18.40;65.90
37806;DHT22;25082;50.870;0.022;2023-04-15T14:36:50;18.40;67.90
37806;DHT22;25082;50.870;0.022;2023-04-15T14:39:17;18.40;69.80
37806;DHT22;25082;50.870;0.022;2023-04-15T14:41:43;18.50;72.00
37806;DHT22;25082;50.870;0.022;2023-04-15T14:44:09;18.50;70.70
37806;DHT22;25082;50.870;0.022;2023-04-15T14:46:36;18.50;68.40
37806;DHT22;25082;50.870;0.022;2023-04-15T14:49:02;18.50;67.50
37806;DHT22;25082;50.870;0.022;2023-04-15T14:51:28;18.50;66.80
37806;DHT22;25082;50.870;0.022;2023-04-15T14:53:54;18.60;66.60
37806;DHT22;25082;50.870;0.022;2023-04-15T14:56:20;18.60;66.40
37806;DHT22;25082;50.870;0.022;2023-04-15T14:58:45;18.60;66.30
37806;DHT22;25082;50.870;0.022;2023-04-15T15:01:12;18.60;66.20
37806;DHT22;25082;50.870;0.022;2023-04-15T15:03:38;18.70;66.20
37806;DHT22;25082;50.870;0.022;2023-04-15T15:06:03;18.70;66.20
37806;DHT22;25082;50.870;0.022;2023-04-15T15:08:29;18.70;66.10
37806;DHT22;25082;50.870;0.022;2023-04-15T15:10:55;18.70;66.20
37806;DHT22;25082;50.870;0.022;2023-04-15T15:13:21;18.70;66.70
37806;DHT22;25082;50.870;0.022;2023-04-15T15:15:46;18.70;66.10
37806;DHT22;25082;50.870;0.022;2023-04-15T15:18:14;18.70;66.20
37806;DHT22;25082;50.870;0.022;2023-04-15T15:20:41;18.80;66.70
37806;DHT22;25082;50.870;0.022;2023-04-15T15:23:07;18.80;66.70
37806;DHT22;25082;50.870;0.022;2023-04-15T15:25:33;18.80;66.80
37806;DHT22;25082;50.870;0.022;2023-04-15T15:27:58;18.80;67.00
37806;DHT22;25082;50.870;0.022;2023-04-15T15:30:24;18.80;67.30
37806;DHT22;25082;50.870;0.022;2023-04-15T15:32:50;18.80;67.50
37806;DHT22;25082;50.870;0.022;2023-04-15T15:35:16;18.80;67.80
37806;DHT22;25082;50.870;0.022;2023-04-15T15:37:42;18.90;67.70